sensor_id;sensor_type;location;lat;lon;timestamp;P1;durP1;ratioP1;P2;durP2;ratioP2
33644;SDS011;19986;48.190;16.366;2024-02-26T00:01:49;45.63;;;43.13;;
33644;SDS011;19986;48.190;16.366;2024-02-26T00:04:15;47.08;;;44.47;;
33644;SDS011;19986;48.190;16.366;2024-02-26T00:06:41;47.75;;;45.15;;
33644;SDS011;19986;48.190;16.366;2024-02-26T00:09:07;48.65;;;45.80;;
33644;SDS011;19986;48.190;16.366;2024-02-26T00:11:35;47.42;;;44.63;;
33644;SDS011;19986;48.190;16.366;2024-02-26T00:14:02;47.35;;;44.70;;
33644;SDS011;19986;48.190;16.366;2024-02-26T00:16:28;47.45;;;44.95;;
33644;SDS011;19986;48.190;16.366;2024-02-26T00:18:56;46.42;;;43.90;;
33644;SDS011;19986;48.190;16.366;2024-02-26T00:21:22;47.38;;;44.80;;
33644;SDS011;19986;48.190;16.366;2024-02-26T00:23:55;45.10;;;42.70;;
33644;SDS011;19986;48.190;16.366;2024-02-26T00:26:20;48.70;;;46.08;;
33644;SDS011;19986;48.190;16.366;2024-02-26T00:28:46;49.03;;;46.15;;
33644;SDS011;19986;48.190;16.366;2024-02-26T00:31:12;46.33;;;43.60;;
33644;SDS011;19986;48.190;16.366;2024-02-26T00:33:38;46.38;;;43.67;;
33644;SDS011;19986;48.190;16.366;2024-02-26T00:36:04;44.85;;;42.30;;
33644;SDS011;19986;48.190;16.366;2024-02-26T00:38:30;44.60;;;42.03;;
33644;SDS011;19986;48.190;16.366;2024-02-26T00:40:56;46.25;;;43.75;;
33644;SDS011;19986;48.190;16.366;2024-02-26T00:43:22;45.35;;;42.72;;
33644;SDS011;19986;48.190;16.366;2024-02-26T00:45:48;46.25;;;43.65;;
33644;SDS011;19986;48.190;16.366;2024-02-26T00:48:14;46.00;;;43.35;;
33644;SDS011;19986;48.190;16.366;2024-02-26T00:50:41;45.65;;;42.97;;
33644;SDS011;19986;48.190;16.366;2024-02-26T00:53:08;45.40;;;43.00;;
33644;SDS011;19986;48.190;16.366;2024-02-26T00:55:33;45.08;;;42.47;;
33644;SDS011;19986;48.190;16.366;2024-02-26T00:57:59;49.08;;;46.33;;
33644;SDS011;19986;48.190;16.366;2024-02-26T01:00:25;48.00;;;45.38;;
33644;SDS011;19986;48.190;16.366;2024-02-26T01:02:51;47.22;;;44.60;;
33644;SDS011;19986;48.190;16.366;2024-02-26T01:05:17;47.28;;;44.80;;
33644;SDS011;19986;48.190;16.366;2024-02-26T01:07:43;44.53;;;42.17;;
33644;SDS011;19986;48.190;16.366;2024-02-26T01:10:09;44.90;;;42.35;;
33644;SDS011;19986;48.190;16.366;2024-02-26T01:12:35;47.35;;;44.75;;
33644;SDS011;19986;48.190;16.366;2024-02-26T01:15:01;45.80;;;43.30;;
33644;SDS011;19986;48.190;16.366;2024-02-26T01:17:28;47.88;;;45.17;;
33644;SDS011;19986;48.190;16.366;2024-02-26T01:19:54;46.72;;;44.13;;
33644;SDS011;19986;48.190;16.366;2024-02-26T01:22:20;49.88;;;46.97;;
33644;SDS011;19986;48.190;16.366;2024-02-26T01:24:46;48.35;;;45.58;;
33644;SDS011;19986;48.190;16.366;2024-02-26T01:27:12;49.63;;;46.65;;
33644;SDS011;19986;48.190;16.366;2024-02-26T01:29:40;46.78;;;44.28;;
33644;SDS011;19986;48.190;16.366;2024-02-26T01:32:06;46.25;;;43.65;;
33644;SDS011;19986;48.190;16.366;2024-02-26T01:34:32;47.28;;;44.72;;
33644;SDS011;19986;48.190;16.366;2024-02-26T01:37:03;48.22;;;45.53;;
33644;SDS011;19986;48.190;16.366;2024-02-26T01:39:31;50.75;;;47.70;;
33644;SDS011;19986;48.190;16.366;2024-02-26T01:42:01;50.17;;;47.40;;
33644;SDS011;19986;48.190;16.366;2024-02-26T01:44:27;48.40;;;45.40;;
33644;SDS011;19986;48.190;16.366;2024-02-26T01:46:53;48.50;;;45.80;;
33644;SDS011;19986;48.190;16.366;2024-02-26T01:49:20;49.45;;;46.45;;
33644;SDS011;19986;48.190;16.366;2024-02-26T01:51:47;46.03;;;43.45;;
33644;SDS011;19986;48.190;16.366;2024-02-26T01:54:13;47.63;;;45.00;;
33644;SDS011;19986;48.190;16.366;2024-02-26T01:56:40;49.50;;;46.70;;
33644;SDS011;19986;48.190;16.366;2024-02-26T01:59:07;47.95;;;45.08;;
33644;SDS011;19986;48.190;16.366;2024-02-26T02:01:35;48.42;;;45.83;;
33644;SDS011;19986;48.190;16.366;2024-02-26T02:04:03;50.55;;;47.60;;
33644;SDS011;19986;48.190;16.366;2024-02-26T02:06:29;48.75;;;46.03;;
33644;SDS011;19986;48.190;16.366;2024-02-26T02:08:56;49.53;;;46.55;;
33644;SDS011;19986;48.190;16.366;2024-02-26T02:11:22;51.70;;;48.78;;
33644;SDS011;19986;48.190;16.366;2024-02-26T02:13:48;46.85;;;44.25;;
33644;SDS011;19986;48.190;16.366;2024-02-26T02:16:14;49.00;;;46.22;;
33644;SDS011;19986;48.190;16.366;2024-02-26T02:18:41;45.03;;;42.53;;
33644;SDS011;19986;48.190;16.366;2024-02-26T02:21:07;47.65;;;44.95;;
33644;SDS011;19986;48.190;16.366;2024-02-26T02:23:35;49.30;;;46.70;;
33644;SDS011;19986;48.190;16.366;2024-02-26T02:26:01;49.80;;;47.00;;
33644;SDS011;19986;48.190;16.366;2024-02-26T02:28:27;46.30;;;43.58;;
33644;SDS011;19986;48.190;16.366;2024-02-26T02:30:58;47.00;;;44.40;;
33644;SDS011;19986;48.190;16.366;2024-02-26T02:33:25;49.05;;;46.35;;
33644;SDS011;19986;48.190;16.366;2024-02-26T02:35:51;47.85;;;45.25;;
33644;SDS011;19986;48.190;16.366;2024-02-26T02:38:19;49.28;;;46.42;;
33644;SDS011;19986;48.190;16.366;2024-02-26T02:40:45;49.63;;;46.90;;
33644;SDS011;19986;48.190;16.366;2024-02-26T02:43:11;48.90;;;46.13;;
33644;SDS011;19986;48.190;16.366;2024-02-26T02:45:37;47.03;;;44.08;;
33644;SDS011;19986;48.190;16.366;2024-02-26T02:48:03;47.85;;;45.13;;
33644;SDS011;19986;48.190;16.366;2024-02-26T02:50:29;46.95;;;44.58;;
33644;SDS011;19986;48.190;16.366;2024-02-26T02:52:55;48.78;;;46.28;;
33644;SDS011;19986;48.190;16.366;2024-02-26T02:55:21;45.95;;;43.40;;
33644;SDS011;19986;48.190;16.366;2024-02-26T02:57:47;48.95;;;45.83;;
33644;SDS011;19986;48.190;16.366;2024-02-26T03:00:13;50.63;;;47.85;;
33644;SDS011;19986;48.190;16.366;2024-02-26T03:02:39;46.15;;;43.53;;
33644;SDS011;19986;48.190;16.366;2024-02-26T03:05:05;49.47;;;46.78;;
33644;SDS011;19986;48.190;16.366;2024-02-26T03:07:31;46.08;;;43.38;;
33644;SDS011;19986;48.190;16.366;2024-02-26T03:09:57;48.15;;;45.53;;
33644;SDS011;19986;48.190;16.366;2024-02-26T03:12:24;48.08;;;45.63;;
33644;SDS011;19986;48.190;16.366;2024-02-26T03:14:50;46.75;;;44.25;;
33644;SDS011;19986;48.190;16.366;2024-02-26T03:17:17;48.67;;;45.78;;
33644;SDS011;19986;48.190;16.366;2024-02-26T03:19:43;46.90;;;44.50;;
33644;SDS011;19986;48.190;16.366;2024-02-26T03:22:12;46.30;;;43.83;;
33644;SDS011;19986;48.190;16.366;2024-02-26T03:24:38;47.35;;;44.65;;
33644;SDS011;19986;48.190;16.366;2024-02-26T03:27:04;49.85;;;47.17;;
33644;SDS011;19986;48.190;16.366;2024-02-26T03:29:37;47.83;;;45.17;;
33644;SDS011;19986;48.190;16.366;2024-02-26T03:32:03;49.33;;;46.83;;
33644;SDS011;19986;48.190;16.366;2024-02-26T03:34:30;46.13;;;43.70;;
33644;SDS011;19986;48.190;16.366;2024-02-26T03:36:56;49.40;;;46.70;;
33644;SDS011;19986;48.190;16.366;2024-02-26T03:39:22;47.70;;;45.00;;
33644;SDS011;19986;48.190;16.366;2024-02-26T03:41:48;47.05;;;44.28;;
33644;SDS011;19986;48.190;16.366;2024-02-26T03:44:14;49.25;;;46.55;;
33644;SDS011;19986;48.190;16.366;2024-02-26T03:46:40;47.30;;;44.75;;
33644;SDS011;19986;48.190;16.366;2024-02-26T03:49:08;49.58;;;46.80;;
33644;SDS011;19986;48.190;16.366;2024-02-26T03:51:34;46.92;;;44.42;;
33644;SDS011;19986;48.190;16.366;2024-02-26T03:54:00;49.72;;;47.03;;
33644;SDS011;19986;48.190;16.366;2024-02-26T03:56:26;49.33;;;46.78;;
33644;SDS011;19986;48.190;16.366;2024-02-26T03:58:53;46.75;;;44.33;;
33644;SDS011;19986;48.190;16.366;2024-02-26T04:01:18;49.08;;;46.22;;
33644;SDS011;19986;48.190;16.366;2024-02-26T04:03:44;48.70;;;46.08;;
33644;SDS011;19986;48.190;16.366;2024-02-26T04:06:11;49.47;;;46.70;;
33644;SDS011;19986;48.190;16.366;2024-02-26T04:08:41;47.60;;;45.20;;
33644;SDS011;19986;48.190;16.366;2024-02-26T04:11:07;48.88;;;46.17;;
33644;SDS011;19986;48.190;16.366;2024-02-26T04:13:33;49.10;;;46.30;;
33644;SDS011;19986;48.190;16.366;2024-02-26T04:15:59;49.63;;;46.60;;
33644;SDS011;19986;48.190;16.366;2024-02-26T04:18:28;49.20;;;46.50;;
33644;SDS011;19986;48.190;16.366;2024-02-26T04:20:55;48.50;;;45.55;;
33644;SDS011;19986;48.190;16.366;2024-02-26T04:23:22;50.80;;;48.00;;
33644;SDS011;19986;48.190;16.366;2024-02-26T04:25:48;48.08;;;45.45;;
33644;SDS011;19986;48.190;16.366;2024-02-26T04:28:14;49.20;;;46.40;;
33644;SDS011;19986;48.190;16.366;2024-02-26T04:30:40;49.80;;;46.50;;
33644;SDS011;19986;48.190;16.366;2024-02-26T04:33:06;48.75;;;45.92;;
33644;SDS011;19986;48.190;16.366;2024-02-26T04:35:33;76.03;;;48.45;;
33644;SDS011;19986;48.190;16.366;2024-02-26T04:38:00;49.25;;;46.38;;
33644;SDS011;19986;48.190;16.366;2024-02-26T04:40:26;46.63;;;44.03;;
33644;SDS011;19986;48.190;16.366;2024-02-26T04:42:52;50.10;;;47.30;;
33644;SDS011;19986;48.190;16.366;2024-02-26T04:45:18;47.40;;;44.70;;
33644;SDS011;19986;48.190;16.366;2024-02-26T04:47:46;48.85;;;46.05;;
33644;SDS011;19986;48.190;16.366;2024-02-26T04:50:12;47.88;;;45.08;;
33644;SDS011;19986;48.190;16.366;2024-02-26T04:52:38;51.28;;;48.47;;
33644;SDS011;19986;48.190;16.366;2024-02-26T04:55:04;47.00;;;44.38;;
33644;SDS011;19986;48.190;16.366;2024-02-26T04:57:30;47.88;;;45.20;;
33644;SDS011;19986;48.190;16.366;2024-02-26T04:59:55;45.80;;;43.30;;
33644;SDS011;19986;48.190;16.366;2024-02-26T05:02:21;48.97;;;46.30;;
33644;SDS011;19986;48.190;16.366;2024-02-26T05:04:47;49.80;;;46.90;;
33644;SDS011;19986;48.190;16.366;2024-02-26T05:07:13;48.55;;;45.75;;
33644;SDS011;19986;48.190;16.366;2024-02-26T05:09:39;49.00;;;46.13;;
33644;SDS011;19986;48.190;16.366;2024-02-26T05:12:08;50.47;;;47.58;;
33644;SDS011;19986;48.190;16.366;2024-02-26T05:14:35;50.40;;;47.65;;
33644;SDS011;19986;48.190;16.366;2024-02-26T05:17:01;49.60;;;46.55;;
33644;SDS011;19986;48.190;16.366;2024-02-26T05:19:26;50.38;;;47.47;;
33644;SDS011;19986;48.190;16.366;2024-02-26T05:21:52;49.35;;;46.47;;
33644;SDS011;19986;48.190;16.366;2024-02-26T05:24:18;52.40;;;49.33;;
33644;SDS011;19986;48.190;16.366;2024-02-26T05:26:48;48.67;;;45.78;;
33644;SDS011;19986;48.190;16.366;2024-02-26T05:29:13;53.90;;;50.72;;
33644;SDS011;19986;48.190;16.366;2024-02-26T05:31:41;48.17;;;45.25;;
33644;SDS011;19986;48.190;16.366;2024-02-26T05:34:07;47.35;;;44.75;;
33644;SDS011;19986;48.190;16.366;2024-02-26T05:36:33;49.60;;;46.80;;
33644;SDS011;19986;48.190;16.366;2024-02-26T05:39:00;50.95;;;47.95;;
33644;SDS011;19986;48.190;16.366;2024-02-26T05:41:26;50.30;;;47.40;;
33644;SDS011;19986;48.190;16.366;2024-02-26T05:43:52;50.03;;;47.10;;
33644;SDS011;19986;48.190;16.366;2024-02-26T05:46:19;51.83;;;48.80;;
33644;SDS011;19986;48.190;16.366;2024-02-26T05:48:46;50.17;;;47.17;;
33644;SDS011;19986;48.190;16.366;2024-02-26T05:51:13;49.97;;;46.88;;
33644;SDS011;19986;48.190;16.366;2024-02-26T05:53:40;49.17;;;46.42;;
33644;SDS011;19986;48.190;16.366;2024-02-26T05:56:06;51.58;;;48.47;;
33644;SDS011;19986;48.190;16.366;2024-02-26T05:58:32;51.17;;;48.22;;
33644;SDS011;19986;48.190;16.366;2024-02-26T06:00:58;49.50;;;46.63;;
33644;SDS011;19986;48.190;16.366;2024-02-26T06:03:26;50.97;;;48.08;;
33644;SDS011;19986;48.190;16.366;2024-02-26T06:05:52;49.42;;;46.58;;
33644;SDS011;19986;48.190;16.366;2024-02-26T06:08:18;50.97;;;48.08;;
33644;SDS011;19986;48.190;16.366;2024-02-26T06:10:44;50.80;;;47.92;;
33644;SDS011;19986;48.190;16.366;2024-02-26T06:13:10;48.15;;;45.33;;
33644;SDS011;19986;48.190;16.366;2024-02-26T06:15:36;49.17;;;46.58;;
33644;SDS011;19986;48.190;16.366;2024-02-26T06:18:02;50.85;;;48.10;;
33644;SDS011;19986;48.190;16.366;2024-02-26T06:20:28;49.03;;;46.10;;
33644;SDS011;19986;48.190;16.366;2024-02-26T06:22:54;48.15;;;45.65;;
33644;SDS011;19986;48.190;16.366;2024-02-26T06:25:20;48.13;;;45.33;;
33644;SDS011;19986;48.190;16.366;2024-02-26T06:27:45;48.38;;;45.67;;
33644;SDS011;19986;48.190;16.366;2024-02-26T06:30:11;47.75;;;45.22;;
33644;SDS011;19986;48.190;16.366;2024-02-26T06:32:38;49.05;;;45.83;;
33644;SDS011;19986;48.190;16.366;2024-02-26T06:35:03;48.08;;;45.38;;
33644;SDS011;19986;48.190;16.366;2024-02-26T06:37:35;47.80;;;45.17;;
33644;SDS011;19986;48.190;16.366;2024-02-26T06:40:01;47.55;;;44.75;;
33644;SDS011;19986;48.190;16.366;2024-02-26T06:42:32;49.30;;;46.30;;
33644;SDS011;19986;48.190;16.366;2024-02-26T06:44:58;49.55;;;46.55;;
33644;SDS011;19986;48.190;16.366;2024-02-26T06:47:25;50.33;;;47.38;;
33644;SDS011;19986;48.190;16.366;2024-02-26T06:49:51;49.20;;;46.35;;
33644;SDS011;19986;48.190;16.366;2024-02-26T06:52:17;48.88;;;46.20;;
33644;SDS011;19986;48.190;16.366;2024-02-26T06:54:43;50.13;;;47.33;;
33644;SDS011;19986;48.190;16.366;2024-02-26T06:57:10;49.90;;;46.97;;
33644;SDS011;19986;48.190;16.366;2024-02-26T06:59:36;50.97;;;47.92;;
33644;SDS011;19986;48.190;16.366;2024-02-26T07:02:01;48.75;;;45.88;;
33644;SDS011;19986;48.190;16.366;2024-02-26T07:04:27;50.85;;;47.58;;
33644;SDS011;19986;48.190;16.366;2024-02-26T07:06:53;50.05;;;47.25;;
33644;SDS011;19986;48.190;16.366;2024-02-26T07:09:19;46.67;;;44.00;;
33644;SDS011;19986;48.190;16.366;2024-02-26T07:11:45;50.28;;;47.17;;
33644;SDS011;19986;48.190;16.366;2024-02-26T07:14:11;52.03;;;48.42;;
33644;SDS011;19986;48.190;16.366;2024-02-26T07:16:38;49.40;;;46.65;;
33644;SDS011;19986;48.190;16.366;2024-02-26T07:19:04;51.85;;;48.33;;
33644;SDS011;19986;48.190;16.366;2024-02-26T07:21:30;49.58;;;46.67;;
33644;SDS011;19986;48.190;16.366;2024-02-26T07:23:56;50.95;;;47.75;;
33644;SDS011;19986;48.190;16.366;2024-02-26T07:26:22;49.42;;;46.42;;
33644;SDS011;19986;48.190;16.366;2024-02-26T07:28:50;47.50;;;44.75;;
33644;SDS011;19986;48.190;16.366;2024-02-26T07:31:17;48.33;;;45.58;;
33644;SDS011;19986;48.190;16.366;2024-02-26T07:33:43;48.97;;;45.92;;
33644;SDS011;19986;48.190;16.366;2024-02-26T07:36:09;48.22;;;45.55;;
33644;SDS011;19986;48.190;16.366;2024-02-26T07:38:36;46.83;;;44.25;;
33644;SDS011;19986;48.190;16.366;2024-02-26T07:41:02;50.00;;;46.97;;
33644;SDS011;19986;48.190;16.366;2024-02-26T07:43:28;50.38;;;47.53;;
33644;SDS011;19986;48.190;16.366;2024-02-26T07:45:54;47.60;;;44.90;;
33644;SDS011;19986;48.190;16.366;2024-02-26T07:48:20;46.67;;;44.00;;
33644;SDS011;19986;48.190;16.366;2024-02-26T07:50:46;46.70;;;44.00;;
33644;SDS011;19986;48.190;16.366;2024-02-26T07:53:12;47.90;;;45.05;;
33644;SDS011;19986;48.190;16.366;2024-02-26T07:55:38;49.78;;;46.90;;
33644;SDS011;19986;48.190;16.366;2024-02-26T07:58:04;50.80;;;48.00;;
33644;SDS011;19986;48.190;16.366;2024-02-26T08:00:30;47.92;;;45.20;;
33644;SDS011;19986;48.190;16.366;2024-02-26T08:02:56;49.63;;;47.05;;
33644;SDS011;19986;48.190;16.366;2024-02-26T08:05:21;49.13;;;46.13;;
33644;SDS011;19986;48.190;16.366;2024-02-26T08:07:47;46.88;;;44.03;;
33644;SDS011;19986;48.190;16.366;2024-02-26T08:10:13;46.03;;;43.42;;
33644;SDS011;19986;48.190;16.366;2024-02-26T08:12:40;49.35;;;46.47;;
33644;SDS011;19986;48.190;16.366;2024-02-26T08:15:06;46.63;;;44.03;;
33644;SDS011;19986;48.190;16.366;2024-02-26T08:17:33;48.75;;;46.10;;
33644;SDS011;19986;48.190;16.366;2024-02-26T08:19:59;48.30;;;45.72;;
33644;SDS011;19986;48.190;16.366;2024-02-26T08:22:25;47.00;;;44.40;;
33644;SDS011;19986;48.190;16.366;2024-02-26T08:24:51;46.25;;;43.55;;
33644;SDS011;19986;48.190;16.366;2024-02-26T08:27:17;47.67;;;45.00;;
33644;SDS011;19986;48.190;16.366;2024-02-26T08:29:43;46.70;;;44.00;;
33644;SDS011;19986;48.190;16.366;2024-02-26T08:32:08;45.00;;;42.42;;
33644;SDS011;19986;48.190;16.366;2024-02-26T08:34:34;45.15;;;42.65;;
33644;SDS011;19986;48.190;16.366;2024-02-26T08:37:00;47.45;;;44.65;;
33644;SDS011;19986;48.190;16.366;2024-02-26T08:39:26;48.60;;;45.70;;
33644;SDS011;19986;48.190;16.366;2024-02-26T08:41:52;44.92;;;42.42;;
33644;SDS011;19986;48.190;16.366;2024-02-26T08:44:18;47.08;;;44.25;;
33644;SDS011;19986;48.190;16.366;2024-02-26T08:46:43;46.10;;;43.42;;
33644;SDS011;19986;48.190;16.366;2024-02-26T08:49:11;44.75;;;42.17;;
33644;SDS011;19986;48.190;16.366;2024-02-26T08:51:43;47.00;;;44.30;;
33644;SDS011;19986;48.190;16.366;2024-02-26T08:54:09;44.85;;;42.20;;
33644;SDS011;19986;48.190;16.366;2024-02-26T08:56:35;45.72;;;42.85;;
33644;SDS011;19986;48.190;16.366;2024-02-26T08:59:01;45.90;;;43.38;;
33644;SDS011;19986;48.190;16.366;2024-02-26T09:01:29;44.30;;;41.90;;
33644;SDS011;19986;48.190;16.366;2024-02-26T09:03:56;46.67;;;43.97;;
33644;SDS011;19986;48.190;16.366;2024-02-26T09:06:22;47.47;;;44.88;;
33644;SDS011;19986;48.190;16.366;2024-02-26T09:08:48;47.22;;;44.10;;
33644;SDS011;19986;48.190;16.366;2024-02-26T09:11:14;45.58;;;42.72;;
33644;SDS011;19986;48.190;16.366;2024-02-26T09:13:40;45.45;;;43.05;;
33644;SDS011;19986;48.190;16.366;2024-02-26T09:16:06;46.92;;;44.45;;
33644;SDS011;19986;48.190;16.366;2024-02-26T09:18:32;43.08;;;40.42;;
33644;SDS011;19986;48.190;16.366;2024-02-26T09:20:59;45.10;;;42.47;;
33644;SDS011;19986;48.190;16.366;2024-02-26T09:23:25;47.35;;;44.40;;
33644;SDS011;19986;48.190;16.366;2024-02-26T09:25:50;44.45;;;42.13;;
33644;SDS011;19986;48.190;16.366;2024-02-26T09:28:16;43.95;;;41.75;;
33644;SDS011;19986;48.190;16.366;2024-02-26T09:30:45;43.35;;;41.15;;
33644;SDS011;19986;48.190;16.366;2024-02-26T09:33:11;45.72;;;43.33;;
33644;SDS011;19986;48.190;16.366;2024-02-26T09:35:38;46.22;;;43.95;;
33644;SDS011;19986;48.190;16.366;2024-02-26T09:38:04;43.60;;;41.10;;
33644;SDS011;19986;48.190;16.366;2024-02-26T09:40:30;44.72;;;42.30;;
33644;SDS011;19986;48.190;16.366;2024-02-26T09:42:59;44.63;;;42.13;;
33644;SDS011;19986;48.190;16.366;2024-02-26T09:45:26;43.30;;;40.80;;
33644;SDS011;19986;48.190;16.366;2024-02-26T09:47:55;42.45;;;40.15;;
33644;SDS011;19986;48.190;16.366;2024-02-26T09:50:21;43.63;;;41.28;;
33644;SDS011;19986;48.190;16.366;2024-02-26T09:52:48;43.83;;;41.63;;
33644;SDS011;19986;48.190;16.366;2024-02-26T09:55:15;39.20;;;37.15;;
33644;SDS011;19986;48.190;16.366;2024-02-26T09:57:44;41.13;;;39.13;;
33644;SDS011;19986;48.190;16.366;2024-02-26T10:00:14;43.90;;;41.67;;
33644;SDS011;19986;48.190;16.366;2024-02-26T10:02:45;43.72;;;41.42;;
33644;SDS011;19986;48.190;16.366;2024-02-26T10:05:18;39.42;;;37.42;;
33644;SDS011;19986;48.190;16.366;2024-02-26T10:07:44;42.63;;;40.58;;
33644;SDS011;19986;48.190;16.366;2024-02-26T10:10:11;42.95;;;40.85;;
33644;SDS011;19986;48.190;16.366;2024-02-26T10:12:38;42.35;;;40.17;;
33644;SDS011;19986;48.190;16.366;2024-02-26T10:15:04;41.13;;;39.08;;
33644;SDS011;19986;48.190;16.366;2024-02-26T10:17:31;41.35;;;39.15;;
33644;SDS011;19986;48.190;16.366;2024-02-26T10:20:13;39.40;;;37.28;;
33644;SDS011;19986;48.190;16.366;2024-02-26T10:22:43;41.03;;;38.83;;
33644;SDS011;19986;48.190;16.366;2024-02-26T10:25:12;41.13;;;39.03;;
33644;SDS011;19986;48.190;16.366;2024-02-26T10:27:39;40.53;;;38.40;;
33644;SDS011;19986;48.190;16.366;2024-02-26T10:30:15;41.83;;;39.58;;
33644;SDS011;19986;48.190;16.366;2024-02-26T10:32:46;42.28;;;40.25;;
33644;SDS011;19986;48.190;16.366;2024-02-26T10:35:13;39.92;;;37.85;;
33644;SDS011;19986;48.190;16.366;2024-02-26T10:37:39;43.30;;;41.08;;
33644;SDS011;19986;48.190;16.366;2024-02-26T10:40:09;39.97;;;37.88;;
33644;SDS011;19986;48.190;16.366;2024-02-26T10:42:38;39.35;;;37.38;;
33644;SDS011;19986;48.190;16.366;2024-02-26T10:45:07;38.17;;;36.22;;
33644;SDS011;19986;48.190;16.366;2024-02-26T10:47:34;40.13;;;38.22;;
33644;SDS011;19986;48.190;16.366;2024-02-26T10:50:01;40.60;;;38.60;;
33644;SDS011;19986;48.190;16.366;2024-02-26T10:52:30;40.42;;;38.33;;
33644;SDS011;19986;48.190;16.366;2024-02-26T10:55:00;41.85;;;39.65;;
33644;SDS011;19986;48.190;16.366;2024-02-26T10:57:46;42.47;;;40.35;;
33644;SDS011;19986;48.190;16.366;2024-02-26T11:00:15;40.53;;;38.47;;
33644;SDS011;19986;48.190;16.366;2024-02-26T11:02:42;41.67;;;39.55;;
33644;SDS011;19986;48.190;16.366;2024-02-26T11:05:11;39.58;;;37.47;;
33644;SDS011;19986;48.190;16.366;2024-02-26T11:07:38;42.05;;;39.75;;
33644;SDS011;19986;48.190;16.366;2024-02-26T11:10:06;43.95;;;41.78;;
33644;SDS011;19986;48.190;16.366;2024-02-26T11:12:32;40.70;;;38.45;;
33644;SDS011;19986;48.190;16.366;2024-02-26T11:15:04;42.13;;;39.95;;
33644;SDS011;19986;48.190;16.366;2024-02-26T11:17:31;43.63;;;41.42;;
33644;SDS011;19986;48.190;16.366;2024-02-26T11:19:58;41.03;;;38.97;;
33644;SDS011;19986;48.190;16.366;2024-02-26T11:22:28;41.22;;;39.22;;
33644;SDS011;19986;48.190;16.366;2024-02-26T11:24:57;39.65;;;37.65;;
33644;SDS011;19986;48.190;16.366;2024-02-26T11:27:38;38.10;;;36.20;;
33644;SDS011;19986;48.190;16.366;2024-02-26T11:30:11;41.85;;;39.95;;
33644;SDS011;19986;48.190;16.366;2024-02-26T11:32:38;38.10;;;36.28;;
33644;SDS011;19986;48.190;16.366;2024-02-26T11:35:04;39.20;;;37.30;;
33644;SDS011;19986;48.190;16.366;2024-02-26T11:37:32;41.90;;;39.75;;
33644;SDS011;19986;48.190;16.366;2024-02-26T11:39:59;39.08;;;37.17;;
33644;SDS011;19986;48.190;16.366;2024-02-26T11:42:28;39.88;;;38.03;;
33644;SDS011;19986;48.190;16.366;2024-02-26T11:44:55;39.40;;;37.50;;
33644;SDS011;19986;48.190;16.366;2024-02-26T11:47:26;38.63;;;36.75;;
33644;SDS011;19986;48.190;16.366;2024-02-26T11:49:52;37.50;;;35.72;;
33644;SDS011;19986;48.190;16.366;2024-02-26T11:52:18;38.40;;;36.50;;
33644;SDS011;19986;48.190;16.366;2024-02-26T11:54:53;39.08;;;37.28;;
33644;SDS011;19986;48.190;16.366;2024-02-26T11:57:38;38.85;;;36.95;;
33644;SDS011;19986;48.190;16.366;2024-02-26T12:00:14;38.55;;;36.63;;
33644;SDS011;19986;48.190;16.366;2024-02-26T12:02:55;38.65;;;36.75;;
33644;SDS011;19986;48.190;16.366;2024-02-26T12:05:32;38.60;;;36.58;;
33644;SDS011;19986;48.190;16.366;2024-02-26T12:10:26;38.38;;;36.45;;
33644;SDS011;19986;48.190;16.366;2024-02-26T12:13:04;37.40;;;35.30;;
33644;SDS011;19986;48.190;16.366;2024-02-26T12:15:39;37.65;;;35.88;;
33644;SDS011;19986;48.190;16.366;2024-02-26T12:18:09;39.95;;;37.97;;
33644;SDS011;19986;48.190;16.366;2024-02-26T12:20:40;39.92;;;37.95;;
33644;SDS011;19986;48.190;16.366;2024-02-26T12:23:06;39.97;;;37.90;;
33644;SDS011;19986;48.190;16.366;2024-02-26T12:25:33;38.65;;;36.83;;
33644;SDS011;19986;48.190;16.366;2024-02-26T12:27:59;37.38;;;35.53;;
33644;SDS011;19986;48.190;16.366;2024-02-26T12:30:25;39.10;;;37.10;;
33644;SDS011;19986;48.190;16.366;2024-02-26T12:32:52;37.75;;;35.65;;
33644;SDS011;19986;48.190;16.366;2024-02-26T12:35:23;38.63;;;36.63;;
33644;SDS011;19986;48.190;16.366;2024-02-26T12:37:49;38.67;;;36.60;;
33644;SDS011;19986;48.190;16.366;2024-02-26T12:40:16;37.95;;;35.95;;
33644;SDS011;19986;48.190;16.366;2024-02-26T12:42:43;40.03;;;38.05;;
33644;SDS011;19986;48.190;16.366;2024-02-26T12:45:10;40.22;;;38.03;;
33644;SDS011;19986;48.190;16.366;2024-02-26T12:47:38;39.88;;;37.78;;
33644;SDS011;19986;48.190;16.366;2024-02-26T12:50:05;38.97;;;37.08;;
33644;SDS011;19986;48.190;16.366;2024-02-26T12:52:32;38.40;;;36.38;;
33644;SDS011;19986;48.190;16.366;2024-02-26T12:54:59;37.95;;;35.88;;
33644;SDS011;19986;48.190;16.366;2024-02-26T12:57:26;39.08;;;36.95;;
33644;SDS011;19986;48.190;16.366;2024-02-26T12:59:54;39.63;;;37.53;;
33644;SDS011;19986;48.190;16.366;2024-02-26T13:02:20;40.10;;;38.22;;
33644;SDS011;19986;48.190;16.366;2024-02-26T13:04:46;38.40;;;36.17;;
33644;SDS011;19986;48.190;16.366;2024-02-26T13:07:15;38.05;;;36.13;;
33644;SDS011;19986;48.190;16.366;2024-02-26T13:09:41;39.75;;;37.75;;
33644;SDS011;19986;48.190;16.366;2024-02-26T13:12:07;37.80;;;35.83;;
33644;SDS011;19986;48.190;16.366;2024-02-26T13:14:33;38.70;;;36.45;;
33644;SDS011;19986;48.190;16.366;2024-02-26T13:17:00;38.13;;;35.90;;
33644;SDS011;19986;48.190;16.366;2024-02-26T13:19:26;37.38;;;35.58;;
33644;SDS011;19986;48.190;16.366;2024-02-26T13:21:55;39.08;;;37.15;;
33644;SDS011;19986;48.190;16.366;2024-02-26T13:24:21;39.30;;;37.35;;
33644;SDS011;19986;48.190;16.366;2024-02-26T13:26:54;36.72;;;34.92;;
33644;SDS011;19986;48.190;16.366;2024-02-26T13:29:20;38.88;;;36.95;;
33644;SDS011;19986;48.190;16.366;2024-02-26T13:31:46;40.05;;;38.13;;
33644;SDS011;19986;48.190;16.366;2024-02-26T13:34:25;39.03;;;36.75;;
33644;SDS011;19986;48.190;16.366;2024-02-26T13:36:52;38.83;;;36.75;;
33644;SDS011;19986;48.190;16.366;2024-02-26T13:39:23;38.80;;;36.90;;
33644;SDS011;19986;48.190;16.366;2024-02-26T13:41:50;39.05;;;37.08;;
33644;SDS011;19986;48.190;16.366;2024-02-26T13:44:17;36.63;;;34.78;;
33644;SDS011;19986;48.190;16.366;2024-02-26T13:46:43;39.42;;;37.35;;
33644;SDS011;19986;48.190;16.366;2024-02-26T13:49:09;38.80;;;37.00;;
33644;SDS011;19986;48.190;16.366;2024-02-26T13:51:36;38.22;;;36.33;;
33644;SDS011;19986;48.190;16.366;2024-02-26T13:54:02;39.50;;;37.50;;
33644;SDS011;19986;48.190;16.366;2024-02-26T13:56:29;40.17;;;38.17;;
33644;SDS011;19986;48.190;16.366;2024-02-26T13:58:55;39.55;;;37.72;;
33644;SDS011;19986;48.190;16.366;2024-02-26T14:01:21;41.47;;;39.53;;
33644;SDS011;19986;48.190;16.366;2024-02-26T14:03:47;37.15;;;35.30;;
33644;SDS011;19986;48.190;16.366;2024-02-26T14:06:13;38.92;;;37.13;;
33644;SDS011;19986;48.190;16.366;2024-02-26T14:08:39;39.03;;;37.03;;
33644;SDS011;19986;48.190;16.366;2024-02-26T14:11:05;42.03;;;40.13;;